createdAt,value
2023-01-29T00:01:14.918Z,16.91
2023-01-29T00:03:44.385Z,17.29
2023-01-29T00:06:14.266Z,18.24
2023-01-29T00:08:44.216Z,16.91
2023-01-29T00:11:14.072Z,17.86
2023-01-29T00:13:44.048Z,17.67
2023-01-29T00:16:13.972Z,18.62
2023-01-29T00:18:44.340Z,15.39
2023-01-29T00:21:18.593Z,17.29
2023-01-29T00:23:49.684Z,16.91
2023-01-29T00:26:17.836Z,19.57
2023-01-29T00:28:45.217Z,17.67
2023-01-29T00:31:22.467Z,16.53
2023-01-29T00:33:52.756Z,16.15
2023-01-29T00:36:24.910Z,19.57
2023-01-29T00:39:00.652Z,19.38
2023-01-29T00:41:51.999Z,20.71
2023-01-29T00:44:41.787Z,18.81
2023-01-29T00:47:29.783Z,14.63
2023-01-29T00:50:02.184Z,19.57
2023-01-29T00:52:32.516Z,19.38
2023-01-29T00:55:05.635Z,19.00
2023-01-29T00:57:37.320Z,19.57
2023-01-29T01:00:12.290Z,18.24
2023-01-29T01:03:01.034Z,17.29
2023-01-29T01:05:31.048Z,16.91
2023-01-29T01:08:00.919Z,16.34
2023-01-29T01:10:33.456Z,18.05
2023-01-29T01:13:07.291Z,18.05
2023-01-29T01:15:40.276Z,22.80
2023-01-29T01:18:10.211Z,19.95
2023-01-29T01:20:40.073Z,20.52
2023-01-29T01:23:08.492Z,25.84
2023-01-29T01:25:38.491Z,22.61
2023-01-29T01:28:07.166Z,21.09
2023-01-29T01:30:35.173Z,20.90
2023-01-29T01:33:03.863Z,20.71
2023-01-29T01:35:31.976Z,22.99
2023-01-29T01:38:00.568Z,20.90
2023-01-29T01:40:28.837Z,19.19
2023-01-29T01:43:00.532Z,20.33
2023-01-29T01:45:34.714Z,18.05
2023-01-29T01:48:21.668Z,19.00
2023-01-29T01:51:03.292Z,21.47
2023-01-29T01:53:50.605Z,22.80
2023-01-29T01:56:29.425Z,26.98
2023-01-29T01:58:59.756Z,22.04
2023-01-29T02:01:29.697Z,25.84
2023-01-29T02:04:27.922Z,24.32
2023-01-29T02:07:20.316Z,23.37
2023-01-29T02:10:05.655Z,25.84
2023-01-29T02:12:37.224Z,24.32
2023-01-29T02:15:08.243Z,22.61
2023-01-29T02:17:36.521Z,23.56
2023-01-29T02:20:18.292Z,22.99
2023-01-29T02:23:46.976Z,24.89
2023-01-29T02:26:45.916Z,24.13
2023-01-29T02:29:42.542Z,27.36
2023-01-29T02:32:27.479Z,21.47
2023-01-29T02:35:28.697Z,19.00
2023-01-29T02:38:18.557Z,24.13
2023-01-29T02:41:13.438Z,24.89
2023-01-29T02:43:51.646Z,17.86
2023-01-29T02:46:37.781Z,25.46
2023-01-29T02:49:47.420Z,25.46
2023-01-29T02:52:26.350Z,25.65
2023-01-29T02:55:09.263Z,20.71
2023-01-29T02:57:46.398Z,23.18
2023-01-29T03:00:22.706Z,22.99
2023-01-29T03:03:20.699Z,22.99
2023-01-29T03:06:06.270Z,22.42
2023-01-29T03:08:45.462Z,19.19
2023-01-29T03:11:17.553Z,29.07
2023-01-29T03:14:02.767Z,24.89
2023-01-29T03:16:46.243Z,17.29
2023-01-29T03:19:29.398Z,25.08
2023-01-29T03:22:04.476Z,21.28
2023-01-29T03:25:02.879Z,23.94
2023-01-29T03:28:15.808Z,26.41
2023-01-29T03:31:12.819Z,26.98
2023-01-29T03:33:51.137Z,24.13
2023-01-29T03:36:49.240Z,23.75
2023-01-29T03:39:19.424Z,31.35
2023-01-29T03:42:08.083Z,27.74
2023-01-29T03:45:11.969Z,22.99
2023-01-29T03:48:00.236Z,20.52
2023-01-29T03:50:53.608Z,23.75
2023-01-29T03:53:34.398Z,29.64
2023-01-29T03:56:07.680Z,27.17
2023-01-29T03:58:45.560Z,27.17
2023-01-29T04:01:33.491Z,26.22
2023-01-29T04:04:15.263Z,26.98
2023-01-29T04:06:51.493Z,23.75
2023-01-29T04:09:34.130Z,28.50
2023-01-29T04:12:20.614Z,27.74
2023-01-29T04:14:53.477Z,26.22
2023-01-29T04:17:33.032Z,30.02
2023-01-29T04:20:03.958Z,26.98
2023-01-29T04:22:35.694Z,26.41
2023-01-29T04:25:17.198Z,29.45
2023-01-29T04:28:16.260Z,29.45
2023-01-29T04:30:52.130Z,28.88
2023-01-29T04:33:49.535Z,31.73
2023-01-29T04:36:41.122Z,24.32
2023-01-29T04:39:33.844Z,24.70
2023-01-29T04:42:23.587Z,25.27
2023-01-29T04:45:08.958Z,26.41
2023-01-29T04:47:59.206Z,26.79
2023-01-29T04:50:39.381Z,30.21
2023-01-29T04:53:46.287Z,25.65
2023-01-29T04:56:41.918Z,26.98
2023-01-29T04:59:27.390Z,31.35
2023-01-29T05:02:00.190Z,35.91
2023-01-29T05:04:34.291Z,32.30
2023-01-29T05:07:07.877Z,32.49
2023-01-29T05:09:39.229Z,34.77
2023-01-29T05:12:16.068Z,30.59
2023-01-29T05:14:48.284Z,34.20
2023-01-29T05:17:20.584Z,29.83
2023-01-29T05:19:50.350Z,26.79
2023-01-29T05:22:22.695Z,31.35
2023-01-29T05:24:52.205Z,28.31
2023-01-29T05:27:53.161Z,28.12
2023-01-29T05:30:22.939Z,28.69
2023-01-29T05:32:52.718Z,31.16
2023-01-29T05:35:22.483Z,33.25
2023-01-29T05:37:52.326Z,32.11
2023-01-29T05:40:22.368Z,29.83
2023-01-29T05:42:52.249Z,34.96
2023-01-29T05:45:22.219Z,32.68
2023-01-29T05:47:59.371Z,31.73
2023-01-29T05:50:29.174Z,29.64
2023-01-29T05:53:01.569Z,27.93
2023-01-29T05:55:31.346Z,26.60
2023-01-29T05:58:01.285Z,36.29
2023-01-29T06:00:31.033Z,43.51
2023-01-29T06:03:01.411Z,37.05
2023-01-29T06:05:31.288Z,38.38
2023-01-29T06:08:01.029Z,37.05
2023-01-29T06:10:30.939Z,36.10
2023-01-29T06:13:00.892Z,37.43
2023-01-29T06:15:30.783Z,35.91
2023-01-29T06:18:00.576Z,43.13
2023-01-29T06:20:30.386Z,40.85
2023-01-29T06:23:00.962Z,38.57
2023-01-29T06:25:30.737Z,39.90
2023-01-29T06:28:00.821Z,36.67
2023-01-29T06:30:31.929Z,37.43
2023-01-29T06:33:02.695Z,39.90
2023-01-29T06:35:32.467Z,36.67
2023-01-29T06:38:02.296Z,35.15
2023-01-29T06:40:32.067Z,37.05
2023-01-29T06:43:01.971Z,37.81
2023-01-29T06:45:31.768Z,39.33
2023-01-29T06:48:01.782Z,38.95
2023-01-29T06:50:31.619Z,38.19
2023-01-29T06:53:01.567Z,38.19
2023-01-29T06:55:31.447Z,41.61
2023-01-29T06:58:10.222Z,39.52
2023-01-29T07:00:40.515Z,39.33
2023-01-29T07:03:11.230Z,41.61
2023-01-29T07:05:38.987Z,31.92
2023-01-29T07:08:07.284Z,39.14
2023-01-29T07:10:36.701Z,38.57
2023-01-29T07:13:04.039Z,38.76
2023-01-29T07:15:32.495Z,43.32
2023-01-29T07:18:12.174Z,38.38
2023-01-29T07:20:43.659Z,36.48
2023-01-29T07:23:14.363Z,41.42
2023-01-29T07:25:42.000Z,41.99
2023-01-29T07:28:10.536Z,41.80
2023-01-29T07:30:38.612Z,39.52
2023-01-29T07:33:09.699Z,51.30
2023-01-29T07:35:41.976Z,40.66
2023-01-29T07:38:11.868Z,29.64
2023-01-29T07:40:41.636Z,41.61
2023-01-29T07:43:11.923Z,34.39
2023-01-29T07:45:41.743Z,37.05
2023-01-29T07:48:13.383Z,40.28
2023-01-29T07:50:44.059Z,40.28
2023-01-29T07:53:15.480Z,39.71
2023-01-29T07:55:45.473Z,40.85
2023-01-29T07:58:15.266Z,42.75
2023-01-29T08:00:45.706Z,41.61
2023-01-29T08:03:20.097Z,38.00
2023-01-29T08:05:50.102Z,26.22
2023-01-29T08:08:19.798Z,43.51
2023-01-29T08:10:49.575Z,40.66
2023-01-29T08:13:19.344Z,41.80
2023-01-29T08:15:49.062Z,40.85
2023-01-29T08:18:18.788Z,38.57
2023-01-29T08:20:48.532Z,36.67
2023-01-29T08:23:17.034Z,43.70
2023-01-29T08:25:45.382Z,44.08
2023-01-29T08:28:13.875Z,42.56
2023-01-29T08:30:44.123Z,42.75
2023-01-29T08:33:13.615Z,43.13
2023-01-29T08:35:42.712Z,44.46
2023-01-29T08:38:10.898Z,39.90
2023-01-29T08:40:38.916Z,35.72
2023-01-29T08:43:10.754Z,37.81
2023-01-29T08:45:42.888Z,40.28
2023-01-29T08:48:12.717Z,37.62
2023-01-29T08:50:42.505Z,36.29
2023-01-29T08:53:12.563Z,45.41
2023-01-29T08:55:42.273Z,40.47
2023-01-29T08:58:12.532Z,48.26
2023-01-29T09:00:42.376Z,39.71
2023-01-29T09:03:12.650Z,46.93
2023-01-29T09:05:42.539Z,44.08
2023-01-29T09:08:12.808Z,41.80
2023-01-29T09:10:42.708Z,44.08
2023-01-29T09:13:12.536Z,40.47
2023-01-29T09:15:42.343Z,37.24
2023-01-29T09:18:12.237Z,43.32
2023-01-29T09:20:42.010Z,42.94
2023-01-29T09:23:12.056Z,31.16
2023-01-29T09:25:44.132Z,36.86
2023-01-29T09:28:13.875Z,40.85
2023-01-29T09:30:44.754Z,40.09
2023-01-29T09:33:14.646Z,40.66
2023-01-29T09:35:46.892Z,34.01
2023-01-29T09:38:16.660Z,36.86
2023-01-29T09:41:17.771Z,40.47
2023-01-29T09:44:12.133Z,38.19
2023-01-29T09:46:48.425Z,39.71
2023-01-29T09:49:25.769Z,45.98
2023-01-29T09:52:04.173Z,35.72
2023-01-29T09:54:37.870Z,37.62
2023-01-29T09:57:17.445Z,33.63
2023-01-29T09:59:47.287Z,33.82
2023-01-29T10:02:39.155Z,43.32
2023-01-29T10:05:55.063Z,35.53
2023-01-29T10:08:30.594Z,37.62
2023-01-29T10:11:02.807Z,42.94
2023-01-29T10:13:52.203Z,37.43
2023-01-29T10:17:01.320Z,36.48
2023-01-29T10:19:49.492Z,33.82
2023-01-29T10:22:49.682Z,37.81
2023-01-29T10:25:22.562Z,35.91
2023-01-29T10:27:57.852Z,34.77
2023-01-29T10:30:38.994Z,40.09
2023-01-29T10:34:01.456Z,33.25
2023-01-29T10:36:42.877Z,33.63
2023-01-29T10:39:24.505Z,28.88
2023-01-29T10:42:26.602Z,32.68
2023-01-29T10:45:08.379Z,34.58
2023-01-29T10:48:21.653Z,30.59
2023-01-29T10:51:43.022Z,33.44
2023-01-29T10:54:38.426Z,26.03
2023-01-29T10:57:35.055Z,29.07
2023-01-29T11:00:23.972Z,28.12
2023-01-29T11:02:53.936Z,31.54
2023-01-29T11:05:36.382Z,30.97
2023-01-29T11:08:16.378Z,33.82
2023-01-29T11:11:17.394Z,29.45
2023-01-29T11:14:07.127Z,27.36
2023-01-29T11:16:47.473Z,32.49
2023-01-29T11:19:16.361Z,30.40
2023-01-29T11:22:01.346Z,32.11
2023-01-29T11:24:31.167Z,31.73
2023-01-29T11:27:00.986Z,27.55
2023-01-29T11:29:44.811Z,27.17
2023-01-29T11:32:33.900Z,31.54
2023-01-29T11:35:15.892Z,30.59
2023-01-29T11:37:46.039Z,27.55
2023-01-29T11:40:20.571Z,25.08
2023-01-29T11:42:53.667Z,28.12
2023-01-29T11:45:23.299Z,33.63
2023-01-29T11:47:56.771Z,29.45
2023-01-29T11:50:31.881Z,25.84
2023-01-29T11:53:03.443Z,25.27
2023-01-29T11:55:49.954Z,25.46
2023-01-29T11:58:31.834Z,26.41
2023-01-29T12:01:03.836Z,29.64
2023-01-29T12:03:49.935Z,32.87
2023-01-29T12:06:28.455Z,28.31
2023-01-29T12:09:02.876Z,28.50
2023-01-29T12:11:35.562Z,33.44
2023-01-29T12:14:27.037Z,27.74
2023-01-29T12:17:24.018Z,28.69
2023-01-29T12:20:09.284Z,32.49
2023-01-29T12:23:31.713Z,30.40
2023-01-29T12:26:36.443Z,26.41
2023-01-29T12:29:33.583Z,28.69
2023-01-29T12:32:26.129Z,29.07
2023-01-29T12:35:12.129Z,26.60
2023-01-29T12:38:20.593Z,23.56
2023-01-29T12:41:04.299Z,27.55
2023-01-29T12:43:45.074Z,25.08
2023-01-29T12:46:43.661Z,32.11
2023-01-29T12:49:22.472Z,23.75
2023-01-29T12:52:24.420Z,27.17
2023-01-29T12:55:06.584Z,27.55
2023-01-29T12:58:05.261Z,29.26
2023-01-29T13:00:47.932Z,30.78
2023-01-29T13:03:48.830Z,26.22
2023-01-29T13:06:28.903Z,29.07
2023-01-29T13:09:06.304Z,26.98
2023-01-29T13:12:18.223Z,24.70
2023-01-29T13:14:57.614Z,25.84
2023-01-29T13:17:42.711Z,25.08
2023-01-29T13:20:19.825Z,28.12
2023-01-29T13:22:54.101Z,26.03
2023-01-29T13:25:24.071Z,27.17
2023-01-29T13:27:54.241Z,27.17
2023-01-29T13:30:36.817Z,25.08
2023-01-29T13:33:10.400Z,24.70
2023-01-29T13:35:45.705Z,32.68
2023-01-29T13:38:32.263Z,26.41
2023-01-29T13:41:08.817Z,23.75
2023-01-29T13:43:48.473Z,25.46
2023-01-29T13:46:21.495Z,26.41
2023-01-29T13:48:55.315Z,26.41
2023-01-29T13:51:36.188Z,24.51
2023-01-29T13:54:21.389Z,27.36
2023-01-29T13:56:55.150Z,26.22
2023-01-29T13:59:55.302Z,26.41
2023-01-29T14:02:30.248Z,27.55
2023-01-29T14:05:31.711Z,22.61
2023-01-29T14:08:02.446Z,26.60
2023-01-29T14:10:37.798Z,30.02
2023-01-29T14:13:18.425Z,25.27
2023-01-29T14:15:57.408Z,24.89
2023-01-29T14:18:29.665Z,26.98
2023-01-29T14:21:29.879Z,26.03
2023-01-29T14:24:12.144Z,27.36
2023-01-29T14:26:47.586Z,30.97
2023-01-29T14:29:34.798Z,31.73
2023-01-29T14:32:12.219Z,31.35
2023-01-29T14:34:49.678Z,31.92
2023-01-29T14:37:29.157Z,33.44
2023-01-29T14:40:20.191Z,30.78
2023-01-29T14:43:08.049Z,30.21
2023-01-29T14:45:44.617Z,32.49
2023-01-29T14:48:48.666Z,37.81
2023-01-29T14:51:21.354Z,33.63
2023-01-29T14:54:14.306Z,36.67
2023-01-29T14:57:02.442Z,38.57
2023-01-29T15:00:00.821Z,28.31
2023-01-29T15:02:40.331Z,30.97
2023-01-29T15:05:37.876Z,31.54
2023-01-29T15:08:30.146Z,32.68
2023-01-29T15:11:26.949Z,33.44
2023-01-29T15:14:39.600Z,34.77
2023-01-29T15:17:09.268Z,31.35
2023-01-29T15:19:48.055Z,30.21
2023-01-29T15:22:23.344Z,26.03
2023-01-29T15:25:10.471Z,26.03
2023-01-29T15:27:45.492Z,29.64
2023-01-29T15:30:29.286Z,30.40
2023-01-29T15:33:00.630Z,28.12
2023-01-29T15:35:42.337Z,29.64
2023-01-29T15:38:21.102Z,30.97
2023-01-29T15:41:01.340Z,28.69
2023-01-29T15:43:36.735Z,27.93
2023-01-29T15:46:25.433Z,30.02
2023-01-29T15:49:00.485Z,24.89
2023-01-29T15:51:31.720Z,28.69
2023-01-29T15:54:05.849Z,34.58
2023-01-29T15:56:51.286Z,35.34
2023-01-29T15:59:27.262Z,31.35
2023-01-29T16:01:57.244Z,36.10
2023-01-29T16:04:31.308Z,39.90
2023-01-29T16:07:01.998Z,33.06
2023-01-29T16:09:32.111Z,31.35
2023-01-29T16:12:02.745Z,34.20
2023-01-29T16:14:31.942Z,36.86
2023-01-29T16:17:36.530Z,37.62
2023-01-29T16:20:27.192Z,30.02
2023-01-29T16:22:57.624Z,34.77
2023-01-29T16:25:30.803Z,30.97
2023-01-29T16:28:05.967Z,38.95
2023-01-29T16:30:37.504Z,33.63
2023-01-29T16:33:14.667Z,35.91
2023-01-29T16:35:52.266Z,40.66
2023-01-29T16:38:33.060Z,39.71
2023-01-29T16:41:16.282Z,31.92
2023-01-29T16:43:59.405Z,35.72
2023-01-29T16:46:33.693Z,32.49
2023-01-29T16:49:43.424Z,38.57
2023-01-29T16:52:29.620Z,37.24
2023-01-29T16:55:21.825Z,32.11
2023-01-29T16:57:55.604Z,32.30
2023-01-29T17:00:28.448Z,34.01
2023-01-29T17:03:05.987Z,37.05
2023-01-29T17:05:38.498Z,38.76
2023-01-29T17:08:24.727Z,35.53
2023-01-29T17:10:55.061Z,30.59
2023-01-29T17:13:45.916Z,37.81
2023-01-29T17:16:27.234Z,41.23
2023-01-29T17:18:58.210Z,38.00
2023-01-29T17:21:30.473Z,34.20
2023-01-29T17:24:00.271Z,40.47
2023-01-29T17:26:31.577Z,35.91
2023-01-29T17:29:01.389Z,33.06
2023-01-29T17:31:31.198Z,32.49
2023-01-29T17:34:01.063Z,31.54
2023-01-29T17:36:30.836Z,31.16
2023-01-29T17:39:01.286Z,36.10
2023-01-29T17:41:32.590Z,36.48
2023-01-29T17:44:02.825Z,39.14
2023-01-29T17:46:32.569Z,40.47
2023-01-29T17:49:04.427Z,45.03
2023-01-29T17:51:34.365Z,39.71
2023-01-29T17:54:04.249Z,36.10
2023-01-29T17:56:34.040Z,36.10
2023-01-29T17:59:23.730Z,34.77
2023-01-29T18:01:53.132Z,33.06
2023-01-29T18:04:23.572Z,29.83
2023-01-29T18:06:55.623Z,33.25
2023-01-29T18:09:25.684Z,30.78
2023-01-29T18:11:55.755Z,37.43
2023-01-29T18:14:25.513Z,35.34
2023-01-29T18:16:57.258Z,34.96
2023-01-29T18:19:27.624Z,30.97
2023-01-29T18:21:57.500Z,29.45
2023-01-29T18:24:28.020Z,30.97
2023-01-29T18:26:57.545Z,35.34
2023-01-29T18:29:30.094Z,34.58
2023-01-29T18:31:59.350Z,32.49
2023-01-29T18:34:29.179Z,30.02
2023-01-29T18:37:00.183Z,32.11
2023-01-29T18:39:29.329Z,25.46
2023-01-29T18:41:59.177Z,30.97
2023-01-29T18:44:29.768Z,35.15
2023-01-29T18:46:59.499Z,34.96
2023-01-29T18:49:29.228Z,31.16
2023-01-29T18:51:58.982Z,31.73
2023-01-29T18:54:29.447Z,31.35
2023-01-29T18:57:13.855Z,32.30
2023-01-29T18:59:45.189Z,30.21
2023-01-29T19:02:19.172Z,26.22
2023-01-29T19:04:49.333Z,29.83
2023-01-29T19:07:19.359Z,28.50
2023-01-29T19:09:50.469Z,32.87
2023-01-29T19:12:22.340Z,25.27
2023-01-29T19:14:52.131Z,28.31
2023-01-29T19:17:22.597Z,30.97
2023-01-29T19:19:52.479Z,33.63
2023-01-29T19:22:22.284Z,30.21
2023-01-29T19:24:52.071Z,30.02
2023-01-29T19:27:20.636Z,28.88
2023-01-29T19:29:48.942Z,30.59
2023-01-29T19:32:17.347Z,27.55
2023-01-29T19:34:45.777Z,30.40
2023-01-29T19:37:15.118Z,26.41
2023-01-29T19:39:42.300Z,30.40
2023-01-29T19:42:14.682Z,24.70
2023-01-29T19:44:45.418Z,23.18
2023-01-29T19:47:15.427Z,24.70
2023-01-29T19:49:45.405Z,25.84
2023-01-29T19:52:41.464Z,21.09
2023-01-29T19:55:21.294Z,24.70
2023-01-29T19:57:57.007Z,23.18
2023-01-29T20:00:25.759Z,26.98
2023-01-29T20:02:53.944Z,26.22
2023-01-29T20:05:23.960Z,27.55
2023-01-29T20:07:50.766Z,23.94
2023-01-29T20:10:19.672Z,22.42
2023-01-29T20:12:47.858Z,18.81
2023-01-29T20:15:16.094Z,22.04
2023-01-29T20:17:45.957Z,23.94
2023-01-29T20:20:13.045Z,21.66
2023-01-29T20:22:41.234Z,20.90
2023-01-29T20:25:13.496Z,20.90
2023-01-29T20:27:43.550Z,24.70
2023-01-29T20:30:14.088Z,22.99
2023-01-29T20:32:43.859Z,22.23
2023-01-29T20:35:13.748Z,24.13
2023-01-29T20:37:43.559Z,17.86
2023-01-29T20:40:15.648Z,22.04
2023-01-29T20:42:45.146Z,25.08
2023-01-29T20:45:13.621Z,19.57
2023-01-29T20:47:43.266Z,22.42
2023-01-29T20:50:13.044Z,21.28
2023-01-29T20:52:42.767Z,22.61
2023-01-29T20:55:12.607Z,17.67
2023-01-29T20:57:42.565Z,21.47
2023-01-29T21:00:15.732Z,19.76
2023-01-29T21:02:45.996Z,23.56
2023-01-29T21:05:15.804Z,22.23
2023-01-29T21:07:45.739Z,25.84
2023-01-29T21:10:16.647Z,22.99
2023-01-29T21:12:46.512Z,22.42
2023-01-29T21:15:16.765Z,31.73
2023-01-29T21:17:48.233Z,26.03
2023-01-29T21:20:18.565Z,23.56
2023-01-29T21:22:49.130Z,33.25
2023-01-29T21:25:20.807Z,40.66
2023-01-29T21:27:51.226Z,28.31
2023-01-29T21:30:22.347Z,25.65
2023-01-29T21:32:52.188Z,26.03
2023-01-29T21:35:22.088Z,18.62
2023-01-29T21:37:51.945Z,21.47
2023-01-29T21:40:21.754Z,25.84
2023-01-29T21:43:10.944Z,23.75
2023-01-29T21:45:42.631Z,21.85
2023-01-29T21:48:12.342Z,28.31
2023-01-29T21:50:42.095Z,24.89
2023-01-29T21:53:11.979Z,25.27
2023-01-29T21:55:40.674Z,27.17
2023-01-29T21:58:09.232Z,25.65
2023-01-29T22:00:38.442Z,25.84
2023-01-29T22:03:06.750Z,23.56
2023-01-29T22:05:34.732Z,24.13
2023-01-29T22:08:04.887Z,19.38
2023-01-29T22:10:36.464Z,23.75
2023-01-29T22:13:06.349Z,26.03
2023-01-29T22:15:36.083Z,23.18
2023-01-29T22:18:05.985Z,26.60
2023-01-29T22:20:36.632Z,22.99
2023-01-29T22:23:06.517Z,22.99
2023-01-29T22:25:36.284Z,19.76
2023-01-29T22:28:07.328Z,24.70
2023-01-29T22:30:37.057Z,27.17
2023-01-29T22:33:07.162Z,21.85
2023-01-29T22:35:37.291Z,25.08
2023-01-29T22:38:07.412Z,23.75
2023-01-29T22:40:37.121Z,21.47
2023-01-29T22:43:07.454Z,23.75
2023-01-29T22:45:39.789Z,23.75
2023-01-29T22:48:09.569Z,27.36
2023-01-29T22:50:40.812Z,21.47
2023-01-29T22:53:10.124Z,24.13
2023-01-29T22:55:39.960Z,24.70
2023-01-29T22:58:09.945Z,25.27
2023-01-29T23:00:39.724Z,26.03
2023-01-29T23:03:09.462Z,24.32
2023-01-29T23:05:39.269Z,22.04
2023-01-29T23:08:09.244Z,25.65
2023-01-29T23:10:39.045Z,24.32
2023-01-29T23:13:08.817Z,24.89
2023-01-29T23:15:39.405Z,25.46
2023-01-29T23:18:08.718Z,26.98
2023-01-29T23:20:38.759Z,23.94
2023-01-29T23:23:07.035Z,23.56
2023-01-29T23:25:55.587Z,25.27
2023-01-29T23:28:24.084Z,22.23
2023-01-29T23:30:53.877Z,33.44
2023-01-29T23:33:23.982Z,23.56
2023-01-29T23:35:53.787Z,27.36
2023-01-29T23:38:23.544Z,27.17
2023-01-29T23:40:53.625Z,27.55
2023-01-29T23:43:30.520Z,29.07
2023-01-29T23:45:59.633Z,27.17
2023-01-29T23:48:29.601Z,26.22
2023-01-29T23:50:59.413Z,24.13
2023-01-29T23:53:29.243Z,26.22
2023-01-29T23:56:04.908Z,31.35
2023-01-29T23:58:34.830Z,25.08
